Time;durP1;ratioP1;P1;durP2;ratioP2;P2;SDS_P1;SDS_P2;PMS_P1;PMS_P2;Temp;Humidity;BMP_temperature;BMP_pressure;BME280_temperature;BME280_humidity;BME280_pressure;Samples;Min_cycle;Max_cycle;Signal;HPM_P1;HPM_P2
2023/02/13 09:52:13;;;;;;;;;;;;;;;3.90;69.36;100225.78;5718293;23;19986;-62
2023/02/13 09:54:39;;;;;;;;;;;;;;;3.95;69.26;100226.59;4950903;29;19958;-62
2023/02/13 09:57:10;;;;;;;;;;;;;;;4.01;69.18;100218.75;4953164;29;19922;-63
2023/02/13 09:59:38;;;;;;;;;;;;;;;4.10;69.69;100220.41;4952351;29;19926;-62
2023/02/13 10:02:12;;;;;;;;;;;;;;;4.65;80.85;100229.31;4941234;29;20311;-62
2023/02/13 10:04:55;;;;;;;;;;;;;;;4.80;69.90;100221.31;4930189;29;20294;-63
2023/02/13 10:07:22;;;;;;;;;;;;;;;4.78;68.37;100223.06;4931145;29;19923;-62
2023/02/13 10:09:51;;;;;;;;;;;;;;;4.88;68.26;100219.47;4932357;29;20338;-63
2023/02/13 10:12:21;;;;;;;;;;;;;;;5.02;68.27;100221.00;4932536;29;20009;-62
2023/02/13 10:14:46;;;;;;;;;;;;;;;5.09;68.20;100222.66;4933511;29;20370;-64
2023/02/13 10:17:22;;;;;;;;;;;;;;;5.19;68.28;100209.47;4929316;29;19946;-63
2023/02/13 10:19:49;;;;;;;;;;;;;;;5.29;68.17;100210.22;4932002;29;20301;-63
2023/02/13 10:22:22;;;;;;;;;;;;;;;5.30;67.57;100209.34;4930608;29;20409;-62
2023/02/13 10:24:48;;;;;;;;;;;;;;;5.42;68.00;100214.34;4933121;29;20410;-62
2023/02/13 10:27:27;;;;;;;;;;;;;;;5.52;67.70;100204.66;4929533;29;19957;-63
2023/02/13 10:30:07;;;;;;;;;;;;;;;5.70;68.05;100211.28;4931936;29;20374;-63
2023/02/13 10:32:42;;;;;;;;;;;;;;;5.84;67.96;100209.31;4941638;28;20017;-63
2023/02/13 10:35:42;;;;;;;;;;;;;;;6.05;68.32;100207.25;4930165;29;20012;-64
2023/02/13 10:38:12;;;;;;;;;;;;;;;6.27;67.51;100203.38;4893201;29;20003;-62
2023/02/13 10:40:37;;;;;;;;;;;;;;;6.44;66.81;100204.78;4931736;29;20309;-64
2023/02/13 10:43:09;;;;;;;;;;;;;;;6.63;66.99;100206.13;4939186;29;19922;-64
2023/02/13 10:45:37;;;;;;;;;;;;;;;6.86;67.23;100201.28;4928735;29;19923;-63
2023/02/13 10:48:10;;;;;;;;;;;;;;;7.12;66.74;100199.81;4931572;29;19986;-63
2023/02/13 10:50:51;;;;;;;;;;;;;;;8.18;70.74;100200.66;4925391;29;20428;-62
2023/02/13 10:53:54;;;;;;;;;;;;;;;8.78;66.16;100201.66;4926811;29;19986;-63
2023/02/13 10:56:26;;;;;;;;;;;;;;;8.94;60.47;100196.78;4932211;29;19918;-64
2023/02/13 10:58:57;;;;;;;;;;;;;;;8.82;58.57;100192.81;4939018;29;19915;-65
2023/02/13 11:01:22;;;;;;;;;;;;;;;8.90;59.23;100196.03;4929262;29;19958;-64
2023/02/13 11:03:49;;;;;;;;;;;;;;;8.97;59.26;100196.72;4931442;29;19950;-64
2023/02/13 11:06:14;;;;;;;;;;;;;;;9.12;57.77;100180.53;4918735;29;19918;-63
2023/02/13 11:08:42;;;;;;;;;;;;;;;9.27;58.77;100180.03;4935223;29;20021;-63
2023/02/13 11:11:26;;;;;;;;;;;;;;;9.55;59.08;100179.16;4941746;29;19967;-59
2023/02/13 11:14:01;;;;;;;;;;;;;;;9.84;57.96;100180.81;4930349;29;19959;-62
2023/02/13 11:16:26;;;;;;;;;;;;;;;10.05;56.33;100179.22;4921979;29;19914;-63
2023/02/13 11:18:51;;;;;;;;;;;;;;;10.27;56.60;100175.84;4927509;29;20407;-63
2023/02/13 11:21:19;;;;;;;;;;;;;;;10.50;54.44;100175.03;4929239;29;19919;-62
2023/02/13 11:23:44;;;;;;;;;;;;;;;10.64;53.93;100168.34;4922040;29;20329;-62
2023/02/13 11:26:28;;;;;;;;;;;;;;;10.81;53.29;100165.06;4910555;29;19919;-62
2023/02/13 11:28:55;;;;;;;;;;;;;;;10.99;52.64;100163.50;4928105;29;19922;-62
2023/02/13 11:31:21;;;;;;;;;;;;;;;11.20;52.51;100166.19;4928044;29;19974;-62
2023/02/13 11:33:46;;;;;;;;;;;;;;;11.49;53.77;100163.22;4926601;29;20365;-62
2023/02/13 11:36:15;;;;;;;;;;;;;;;11.89;53.73;100164.22;4931334;29;20018;-62
2023/02/13 11:38:40;;;;;;;;;;;;;;;12.11;50.09;100162.38;4929829;29;19926;-62
2023/02/13 11:41:07;;;;;;;;;;;;;;;12.29;49.73;100160.72;4929001;29;19915;-62
2023/02/13 11:43:35;;;;;;;;;;;;;;;12.62;50.74;100156.63;4928900;29;19919;-63
2023/02/13 11:46:02;;;;;;;;;;;;;;;12.99;50.83;100148.69;4928046;29;19926;-63
2023/02/13 11:48:27;;;;;;;;;;;;;;;13.20;48.06;100152.09;4935554;29;19926;-62
2023/02/13 11:50:52;;;;;;;;;;;;;;;13.44;46.50;100150.06;4927747;29;19914;-63
2023/02/13 11:53:19;;;;;;;;;;;;;;;13.65;46.88;100150.75;4929141;29;19930;-62
2023/02/13 11:55:45;;;;;;;;;;;;;;;13.98;47.61;100147.34;4931024;29;20014;-63
2023/02/13 11:58:10;;;;;;;;;;;;;;;14.17;46.07;100148.09;4925032;29;20294;-63
2023/02/13 12:00:38;;;;;;;;;;;;;;;13.94;44.09;100143.19;4932253;29;20367;-63
2023/02/13 12:03:18;;;;;;;;;;;;;;;14.46;51.25;100140.41;4933678;29;19966;-63
2023/02/13 12:05:54;;;;;;;;;;;;;;;16.38;43.84;100130.25;4931577;29;20298;-62
2023/02/13 12:08:20;;;;;;;;;;;;;;;16.50;42.82;100133.91;4936883;29;19924;-65
2023/02/13 12:10:45;;;;;;;;;;;;;;;15.52;40.60;100129.22;4934929;29;19919;-65
2023/02/13 12:13:14;;;;;;;;;;;;;;;15.10;40.79;100126.31;4930881;29;20021;-65
2023/02/13 12:15:39;;;;;;;;;;;;;;;15.08;42.06;100124.72;4934190;29;20451;-65
2023/02/13 12:18:07;;;;;;;;;;;;;;;15.37;41.82;100121.22;4934374;29;19927;-64
2023/02/13 12:20:34;;;;;;;;;;;;;;;15.65;42.05;100119.63;4935295;29;20403;-64
2023/02/13 12:23:08;;;;;;;;;;;;;;;15.98;41.79;100115.94;4932194;29;19986;-65
2023/02/13 12:25:39;;;;;;;;;;;;;;;16.19;41.27;100104.03;4934662;29;19926;-65
2023/02/13 12:28:15;;;;;;;;;;;;;;;16.52;40.92;100102.88;4927427;29;19938;-64
2023/02/13 12:30:40;;;;;;;;;;;;;;;16.76;39.98;100093.41;4936291;29;19918;-65
2023/02/13 12:33:10;;;;;;;;;;;;;;;17.07;39.84;100091.41;4933759;29;19929;-64
2023/02/13 12:35:54;;;;;;;;;;;;;;;17.37;39.24;100095.63;4934373;29;19929;-63
2023/02/13 12:38:22;;;;;;;;;;;;;;;17.64;38.37;100088.47;4926449;29;20544;-61
2023/02/13 12:40:56;;;;;;;;;;;;;;;17.88;37.85;100087.78;4937008;29;19930;-64
2023/02/13 12:43:28;;;;;;;;;;;;;;;18.14;37.62;100078.00;4931723;29;19929;-64
2023/02/13 12:45:53;;;;;;;;;;;;;;;18.17;36.39;100083.06;4935471;29;20301;-64
2023/02/13 12:48:37;;;;;;;;;;;;;;;18.45;37.07;100071.38;4937553;29;19918;-65
2023/02/13 12:51:02;;;;;;;;;;;;;;;18.24;35.56;100068.44;4934423;29;19919;-65
2023/02/13 12:53:27;;;;;;;;;;;;;;;18.01;35.64;100064.75;4934346;29;19935;-65
2023/02/13 12:56:04;;;;;;;;;;;;;;;18.02;35.60;100058.47;4932356;29;20020;-65
2023/02/13 12:58:34;;;;;;;;;;;;;;;17.83;36.20;100066.88;4928391;29;19919;-65
2023/02/13 13:01:02;;;;;;;;;;;;;;;17.84;36.32;100054.44;4934161;29;19979;-65
2023/02/13 13:03:40;;;;;;;;;;;;;;;18.20;36.16;100056.31;4934023;29;19994;-65
2023/02/13 13:06:14;;;;;;;;;;;;;;;18.61;35.92;100056.00;4935316;29;19929;-66
2023/02/13 13:08:57;;;;;;;;;;;;;;;19.02;35.67;100044.16;4933788;29;19993;-65
2023/02/13 13:11:27;;;;;;;;;;;;;;;19.47;35.38;100049.63;4931380;29;19915;-64
2023/02/13 13:13:57;;;;;;;;;;;;;;;19.51;33.47;100050.25;4931334;29;19958;-64
2023/02/13 13:16:33;;;;;;;;;;;;;;;19.45;33.02;100040.94;4935415;29;19919;-65
2023/02/13 13:19:01;;;;;;;;;;;;;;;19.54;33.44;100050.88;4932461;29;20014;-65
2023/02/13 13:21:32;;;;;;;;;;;;;;;19.87;33.38;100046.59;4932760;29;19919;-63
2023/02/13 13:23:59;;;;;;;;;;;;;;;19.96;32.29;100051.22;4935003;29;20363;-62
2023/02/13 13:26:40;;;;;;;;;;;;;;;19.53;32.67;100048.34;4935346;29;19919;-63
2023/02/13 13:29:16;;;;;;;;;;;;;;;19.29;33.09;100040.41;4930862;29;20375;-62
2023/02/13 13:31:41;;;;;;;;;;;;;;;19.67;32.79;100037.50;4933931;29;19919;-63
2023/02/13 13:34:11;;;;;;;;;;;;;;;19.81;32.68;100031.94;4931971;29;19922;-63
2023/02/13 13:36:36;;;;;;;;;;;;;;;20.15;33.00;100040.78;4932592;29;19954;-64
2023/02/13 13:39:13;;;;;;;;;;;;;;;20.37;31.80;100031.94;4933887;29;19927;-64
2023/02/13 13:41:43;;;;;;;;;;;;;;;20.67;32.27;100034.94;4934220;29;19919;-65
2023/02/13 13:44:27;;;;;;;;;;;;;;;20.88;31.12;100038.50;4934989;29;19915;-62
2023/02/13 13:46:55;;;;;;;;;;;;;;;20.77;30.83;100030.56;4933505;29;19925;-61
2023/02/13 13:49:39;;;;;;;;;;;;;;;21.05;31.51;100029.94;4933491;29;19926;-64
2023/02/13 13:52:22;;;;;;;;;;;;;;;21.23;31.01;100024.03;4930944;29;19978;-62
2023/02/13 13:54:54;;;;;;;;;;;;;;;21.24;29.98;100025.75;4932988;29;19929;-65
2023/02/13 13:57:22;;;;;;;;;;;;;;;21.34;30.10;100024.03;4931519;29;20001;-63
2023/02/13 13:59:50;;;;;;;;;;;;;;;20.47;30.66;100017.88;4937018;29;19930;-63
2023/02/13 14:02:15;;;;;;;;;;;;;;;20.36;31.70;100024.06;4925407;29;19922;-61
2023/02/13 14:04:42;;;;;;;;;;;;;;;20.65;31.46;100015.53;4929767;29;19918;-62
2023/02/13 14:07:14;;;;;;;;;;;;;;;20.49;31.53;100013.28;4935556;29;20382;-62
2023/02/13 14:09:40;;;;;;;;;;;;;;;20.02;31.61;100024.09;4932059;29;20013;-61
2023/02/13 14:12:23;;;;;;;;;;;;;;;19.80;31.56;100016.94;4930115;29;20458;-62
2023/02/13 14:14:49;;;;;;;;;;;;;;;19.87;31.58;100012.00;4935733;29;19919;-62
2023/02/13 14:17:14;;;;;;;;;;;;;;;20.25;37.64;100014.28;4924912;29;19919;-61
2023/02/13 14:19:40;;;;;;;;;;;;;;;20.33;36.25;100010.97;4933160;29;19922;-61
2023/02/13 14:22:17;;;;;;;;;;;;;;;20.41;35.24;100013.91;4931694;29;19966;-62
2023/02/13 14:24:48;;;;;;;;;;;;;;;20.48;35.44;100019.59;4935262;29;20001;-63
2023/02/13 14:27:18;;;;;;;;;;;;;;;20.45;35.14;100015.34;4933322;29;19922;-62
2023/02/13 14:29:45;;;;;;;;;;;;;;;20.42;34.91;100020.06;4930388;29;19918;-62
2023/02/13 14:32:15;;;;;;;;;;;;;;;20.36;34.96;100021.41;4931487;29;19919;-61
2023/02/13 14:34:40;;;;;;;;;;;;;;;20.33;35.03;100022.47;4925980;29;19923;-62
2023/02/13 14:37:19;;;;;;;;;;;;;;;20.15;35.25;100030.13;4934411;29;20000;-62
2023/02/13 14:39:44;;;;;;;;;;;;;;;20.19;34.81;100019.25;4934410;29;19948;-62
2023/02/13 14:42:24;;;;;;;;;;;;;;;19.66;34.86;100019.84;4931853;29;20335;-63
2023/02/13 14:44:49;;;;;;;;;;;;;;;19.90;35.52;100019.75;4930900;29;19969;-62
2023/02/13 14:47:24;;;;;;;;;;;;;;;19.96;35.89;100021.94;4928013;29;19950;-62
2023/02/13 14:49:49;;;;;;;;;;;;;;;19.82;35.67;100012.38;4935564;29;19926;-62
2023/02/13 14:52:14;;;;;;;;;;;;;;;19.83;36.29;100013.22;4930474;29;19922;-62
2023/02/13 14:54:47;;;;;;;;;;;;;;;19.84;36.13;100020.22;4931381;29;19926;-63
2023/02/13 14:57:14;;;;;;;;;;;;;;;19.67;36.22;100019.72;4928504;29;19925;-62
2023/02/13 14:59:40;;;;;;;;;;;;;;;19.35;33.13;100014.19;4927138;29;19919;-65
2023/02/13 15:02:14;;;;;;;;;;;;;;;18.84;33.63;100010.97;4932763;29;20640;-63
2023/02/13 15:04:40;;;;;;;;;;;;;;;18.37;34.33;100012.59;4933654;29;20307;-64
2023/02/13 15:07:06;;;;;;;;;;;;;;;17.99;35.35;100014.38;4932469;29;20613;-63
2023/02/13 15:09:31;;;;;;;;;;;;;;;17.73;36.26;100010.88;4931196;29;19918;-63
2023/02/13 15:11:57;;;;;;;;;;;;;;;17.48;36.25;100011.75;4933958;29;19945;-64
2023/02/13 15:14:34;;;;;;;;;;;;;;;17.24;36.66;100008.06;4936099;29;20467;-64
2023/02/13 15:17:02;;;;;;;;;;;;;;;17.03;37.84;100011.25;4932456;29;19933;-65
2023/02/13 15:19:27;;;;;;;;;;;;;;;16.96;37.98;100009.94;4931776;29;19942;-63
2023/02/13 15:21:59;;;;;;;;;;;;;;;16.87;38.00;100005.25;4934670;29;20367;-63
2023/02/13 15:24:25;;;;;;;;;;;;;;;16.72;38.33;100015.00;4932929;29;19926;-63
2023/02/13 15:26:52;;;;;;;;;;;;;;;16.46;38.28;100007.94;4934956;29;19915;-64
2023/02/13 15:29:18;;;;;;;;;;;;;;;16.27;38.77;100014.38;4931396;29;20011;-64
2023/02/13 15:31:43;;;;;;;;;;;;;;;16.08;38.92;100006.75;4932348;29;20017;-64
2023/02/13 15:34:25;;;;;;;;;;;;;;;15.99;40.08;100019.72;4917020;29;19923;-63
2023/02/13 15:36:50;;;;;;;;;;;;;;;15.73;40.41;100014.25;4935228;29;19919;-65
2023/02/13 15:39:17;;;;;;;;;;;;;;;15.43;40.46;100023.03;4936896;29;19919;-64
2023/02/13 15:41:44;;;;;;;;;;;;;;;15.15;41.26;100023.00;4935409;29;19919;-64
2023/02/13 15:44:14;;;;;;;;;;;;;;;15.11;42.22;100013.53;4932135;29;20390;-64
2023/02/13 15:46:40;;;;;;;;;;;;;;;14.80;41.93;100017.97;4918211;29;19971;-65
2023/02/13 15:49:07;;;;;;;;;;;;;;;14.61;42.43;100014.66;4935914;29;20342;-64
2023/02/13 15:51:33;;;;;;;;;;;;;;;14.35;42.70;100009.03;4945618;29;19925;-63
2023/02/13 15:54:02;;;;;;;;;;;;;;;14.10;43.27;100008.66;4935141;29;19923;-64
2023/02/13 15:56:29;;;;;;;;;;;;;;;13.90;43.59;100007.97;4936425;29;19919;-64
2023/02/13 15:58:54;;;;;;;;;;;;;;;13.67;44.43;100013.59;4935778;29;20371;-63
2023/02/13 16:01:20;;;;;;;;;;;;;;;13.47;44.49;100010.19;4933169;29;19926;-64
2023/02/13 16:03:46;;;;;;;;;;;;;;;13.27;45.06;100007.75;4934951;29;19923;-64
2023/02/13 16:06:15;;;;;;;;;;;;;;;12.98;45.73;100007.41;4936855;29;19921;-63
2023/02/13 16:08:44;;;;;;;;;;;;;;;12.70;46.43;100009.69;4933912;29;19926;-63
2023/02/13 16:11:15;;;;;;;;;;;;;;;12.41;46.90;100009.31;4935775;29;20001;-64
2023/02/13 16:13:49;;;;;;;;;;;;;;;12.15;48.49;100014.91;4934891;29;19923;-62
2023/02/13 16:16:14;;;;;;;;;;;;;;;11.90;48.84;100023.94;4933907;29;19919;-65
2023/02/13 16:18:39;;;;;;;;;;;;;;;11.69;49.68;100019.63;4934808;29;20463;-64
2023/02/13 16:21:04;;;;;;;;;;;;;;;11.32;49.04;100027.34;4928118;29;20368;-64
2023/02/13 16:23:30;;;;;;;;;;;;;;;11.01;50.34;100022.53;4927066;29;19950;-64
2023/02/13 16:25:59;;;;;;;;;;;;;;;10.75;50.59;100027.97;4932134;29;19970;-64
2023/02/13 16:28:25;;;;;;;;;;;;;;;13.25;56.62;100026.28;4931863;29;19922;-62
2023/02/13 16:31:00;;;;;;;;;;;;;;;12.81;46.87;100026.66;4935632;29;20324;-63
2023/02/13 16:33:25;;;;;;;;;;;;;;;11.79;48.11;100024.38;4931901;29;19922;-63
2023/02/13 16:35:54;;;;;;;;;;;;;;;11.15;50.10;100030.69;4936678;29;19926;-64
2023/02/13 16:38:38;;;;;;;;;;;;;;;10.64;51.15;100031.88;4935507;29;19946;-63
2023/02/13 16:41:04;;;;;;;;;;;;;;;10.23;52.35;100038.72;4948763;29;19978;-63
2023/02/13 16:43:32;;;;;;;;;;;;;;;9.92;52.96;100036.38;4944337;28;19929;-63
2023/02/13 16:46:19;;;;;;;;;;;;;;;9.62;54.08;100043.56;4937077;29;19986;-63
2023/02/13 16:48:57;;;;;;;;;;;;;;;9.32;55.03;100043.72;4935325;29;20005;-63
2023/02/13 16:51:28;;;;;;;;;;;;;;;9.13;55.58;100040.03;4935324;29;20042;-63
2023/02/13 16:54:00;;;;;;;;;;;;;;;8.93;55.86;100045.91;4934199;29;19923;-64
2023/02/13 16:56:26;;;;;;;;;;;;;;;8.74;56.97;100046.53;4932452;29;19934;-63
2023/02/13 16:59:02;;;;;;;;;;;;;;;8.55;57.50;100048.00;4932733;29;20013;-63
2023/02/13 17:01:27;;;;;;;;;;;;;;;8.40;58.41;100053.72;4935744;29;19922;-63
2023/02/13 17:03:53;;;;;;;;;;;;;;;8.23;58.57;100049.78;4928840;29;19934;-63
2023/02/13 17:06:18;;;;;;;;;;;;;;;8.11;59.13;100051.91;4936768;29;19990;-63
2023/02/13 17:08:43;;;;;;;;;;;;;;;7.98;59.08;100046.16;4936706;29;19922;-63
2023/02/13 17:11:08;;;;;;;;;;;;;;;7.83;59.79;100053.53;4938212;29;19919;-63
2023/02/13 17:13:34;;;;;;;;;;;;;;;7.59;59.63;100049.84;4935460;29;19974;-63
2023/02/13 17:15:59;;;;;;;;;;;;;;;7.43;60.68;100058.13;4932445;29;20379;-63
2023/02/13 17:18:25;;;;;;;;;;;;;;;7.30;60.52;100060.22;4936314;29;20348;-63
2023/02/13 17:20:50;;;;;;;;;;;;;;;7.21;61.56;100058.69;4925747;29;20376;-63
2023/02/13 17:23:16;;;;;;;;;;;;;;;7.09;61.92;100064.25;4935690;29;20313;-63
2023/02/13 17:25:42;;;;;;;;;;;;;;;7.01;61.61;100069.63;4927940;29;19974;-63
2023/02/13 17:28:20;;;;;;;;;;;;;;;6.95;62.22;100074.13;4935088;29;19919;-63
2023/02/13 17:30:46;;;;;;;;;;;;;;;6.87;62.10;100072.56;4941248;29;19942;-63
2023/02/13 17:33:13;;;;;;;;;;;;;;;6.79;62.12;100066.69;4947813;29;19920;-63
2023/02/13 17:35:38;;;;;;;;;;;;;;;6.71;63.27;100068.63;4942429;29;19920;-63
2023/02/13 17:38:05;;;;;;;;;;;;;;;6.66;63.32;100075.69;4932812;29;19919;-63
2023/02/13 17:40:30;;;;;;;;;;;;;;;6.63;63.52;100071.38;4933011;29;20014;-63
2023/02/13 17:42:56;;;;;;;;;;;;;;;6.55;63.33;100072.47;4931585;29;20017;-64
2023/02/13 17:45:23;;;;;;;;;;;;;;;6.41;64.08;100068.41;4935054;29;19957;-63
2023/02/13 17:47:48;;;;;;;;;;;;;;;6.33;64.19;100072.94;4932458;29;19923;-63
2023/02/13 17:50:13;;;;;;;;;;;;;;;6.21;64.64;100064.53;4925994;29;19979;-63
2023/02/13 17:52:39;;;;;;;;;;;;;;;6.14;64.48;100071.59;4930017;29;19923;-63
2023/02/13 17:55:05;;;;;;;;;;;;;;;6.08;64.52;100071.72;4932318;29;19923;-63
2023/02/13 17:57:30;;;;;;;;;;;;;;;5.98;65.18;100072.81;4934172;29;19914;-63
2023/02/13 17:59:55;;;;;;;;;;;;;;;5.90;65.52;100079.00;4930605;29;19939;-63
2023/02/13 18:02:21;;;;;;;;;;;;;;;5.85;65.89;100077.34;4933446;29;19923;-63
2023/02/13 18:04:46;;;;;;;;;;;;;;;5.78;65.45;100086.16;4932330;29;20381;-63
2023/02/13 18:07:12;;;;;;;;;;;;;;;5.73;66.10;100083.66;4933410;29;19954;-63
2023/02/13 18:09:38;;;;;;;;;;;;;;;5.66;66.10;100082.06;4932455;29;19926;-63
2023/02/13 18:12:04;;;;;;;;;;;;;;;5.60;66.46;100085.63;4925578;29;19925;-62
2023/02/13 18:14:29;;;;;;;;;;;;;;;5.55;67.10;100086.63;4933155;29;19918;-62
2023/02/13 18:16:55;;;;;;;;;;;;;;;5.53;66.36;100088.38;4932590;29;19958;-62
2023/02/13 18:19:20;;;;;;;;;;;;;;;5.43;66.30;100083.31;4935575;29;20367;-63
2023/02/13 18:21:45;;;;;;;;;;;;;;;5.35;66.34;100085.22;4930988;29;20383;-63
2023/02/13 18:24:10;;;;;;;;;;;;;;;5.29;66.82;100085.31;4928477;29;20410;-63
2023/02/13 18:26:35;;;;;;;;;;;;;;;5.18;66.78;100090.72;4929329;29;20379;-63
2023/02/13 18:29:01;;;;;;;;;;;;;;;5.34;68.31;100091.31;4932424;29;20312;-63
2023/02/13 18:31:26;;;;;;;;;;;;;;;5.20;67.06;100090.69;4929342;29;20306;-63
2023/02/13 18:33:51;;;;;;;;;;;;;;;5.11;67.21;100081.28;4932145;29;20346;-62
2023/02/13 18:36:16;;;;;;;;;;;;;;;5.08;67.06;100085.69;4927548;29;20303;-63
2023/02/13 18:38:42;;;;;;;;;;;;;;;4.92;66.69;100085.94;4929377;29;19924;-63
2023/02/13 18:41:07;;;;;;;;;;;;;;;4.67;67.49;100097.56;4932146;29;19919;-63
2023/02/13 18:43:32;;;;;;;;;;;;;;;4.61;67.80;100095.06;4932214;29;20006;-63
2023/02/13 18:45:57;;;;;;;;;;;;;;;4.58;67.73;100085.59;4930464;29;19927;-64
2023/02/13 18:48:23;;;;;;;;;;;;;;;4.54;68.26;100091.69;4931677;29;19926;-64
2023/02/13 18:50:48;;;;;;;;;;;;;;;4.85;73.11;100086.03;4932095;29;19926;-65
2023/02/13 18:53:13;;;;;;;;;;;;;;;4.73;68.62;100095.75;4932477;29;20005;-65
2023/02/13 18:55:39;;;;;;;;;;;;;;;4.66;68.66;100094.13;4934114;29;20009;-66
2023/02/13 18:58:04;;;;;;;;;;;;;;;4.61;68.41;100095.06;4930685;29;19922;-66
2023/02/13 19:00:29;;;;;;;;;;;;;;;4.53;68.42;100093.44;4930714;29;20364;-65
2023/02/13 19:02:57;;;;;;;;;;;;;;;4.45;68.77;100100.47;4932576;29;19923;-66
2023/02/13 19:05:22;;;;;;;;;;;;;;;4.45;69.00;100095.28;4933152;29;20291;-65
2023/02/13 19:07:47;;;;;;;;;;;;;;;4.36;69.57;100100.59;4932510;29;20532;-65
2023/02/13 19:10:14;;;;;;;;;;;;;;;4.35;69.80;100098.88;4934770;29;20371;-65
2023/02/13 19:12:39;;;;;;;;;;;;;;;4.31;70.13;100101.56;4929260;29;20028;-65
2023/02/13 19:15:05;;;;;;;;;;;;;;;4.27;70.09;100105.94;4934194;29;19997;-65
2023/02/13 19:17:30;;;;;;;;;;;;;;;4.22;70.39;100103.38;4933954;29;20052;-65
2023/02/13 19:19:55;;;;;;;;;;;;;;;4.11;70.82;100100.06;4930366;29;19994;-65
2023/02/13 19:22:20;;;;;;;;;;;;;;;4.12;71.52;100106.09;4931273;29;19923;-64
2023/02/13 19:24:45;;;;;;;;;;;;;;;4.10;71.92;100107.88;4932515;29;19950;-65
2023/02/13 19:27:11;;;;;;;;;;;;;;;4.11;71.66;100112.19;4934571;29;20461;-64
2023/02/13 19:29:36;;;;;;;;;;;;;;;4.05;71.29;100103.56;4932770;29;20413;-63
2023/02/13 19:32:01;;;;;;;;;;;;;;;3.98;71.72;100099.31;4933361;29;20391;-65
2023/02/13 19:34:26;;;;;;;;;;;;;;;3.84;70.49;100102.97;4933139;29;20331;-65
2023/02/13 19:36:51;;;;;;;;;;;;;;;3.83;70.67;100101.25;4934530;29;19918;-65
2023/02/13 19:39:17;;;;;;;;;;;;;;;3.80;71.15;100102.16;4931285;29;19926;-65
2023/02/13 19:41:43;;;;;;;;;;;;;;;3.74;70.99;100113.44;4928848;29;19927;-63
2023/02/13 19:44:08;;;;;;;;;;;;;;;3.72;71.74;100114.34;4929407;29;19919;-64
2023/02/13 19:46:33;;;;;;;;;;;;;;;3.68;71.67;100115.25;4934493;29;19973;-64
2023/02/13 19:48:59;;;;;;;;;;;;;;;3.68;72.15;100126.50;4929819;29;19919;-64
2023/02/13 19:51:26;;;;;;;;;;;;;;;3.64;72.93;100129.13;4925516;29;19983;-64
2023/02/13 19:53:59;;;;;;;;;;;;;;;3.65;72.76;100115.25;4931721;29;19923;-64
2023/02/13 19:56:24;;;;;;;;;;;;;;;3.66;73.38;100117.00;4931732;29;19919;-64
2023/02/13 19:58:51;;;;;;;;;;;;;;;3.70;74.38;100118.69;4933423;29;20287;-64
2023/02/13 20:01:17;;;;;;;;;;;;;;;3.71;73.97;100125.59;4925554;29;20013;-63
2023/02/13 20:03:42;;;;;;;;;;;;;;;3.72;74.62;100138.56;4933095;29;19919;-64
2023/02/13 20:06:09;;;;;;;;;;;;;;;3.78;74.76;100132.44;4930438;29;20350;-65
2023/02/13 20:08:34;;;;;;;;;;;;;;;3.78;74.41;100133.28;4933042;29;19915;-63
2023/02/13 20:10:59;;;;;;;;;;;;;;;3.85;75.34;100131.50;4927553;29;19919;-64
2023/02/13 20:13:25;;;;;;;;;;;;;;;3.84;75.33;100127.19;4931873;29;19923;-64
2023/02/13 20:15:50;;;;;;;;;;;;;;;3.84;74.88;100132.38;4930663;29;19923;-64
2023/02/13 20:18:16;;;;;;;;;;;;;;;3.91;77.40;100126.25;4931785;29;20339;-64
2023/02/13 20:20:41;;;;;;;;;;;;;;;4.00;77.96;100123.56;4930034;29;20299;-64
2023/02/13 20:23:06;;;;;;;;;;;;;;;3.99;76.42;100120.97;4931607;29;19919;-64
2023/02/13 20:25:32;;;;;;;;;;;;;;;4.12;77.25;100119.94;4932405;29;20282;-64
2023/02/13 20:27:57;;;;;;;;;;;;;;;4.09;76.04;100116.53;4940067;29;19930;-64
2023/02/13 20:30:23;;;;;;;;;;;;;;;5.72;90.88;100102.78;4938763;29;20371;-62
2023/02/13 20:32:48;;;;;;;;;;;;;;;6.60;69.95;100091.44;4936139;29;19974;-64
2023/02/13 20:35:13;;;;;;;;;;;;;;;6.06;68.76;100094.38;4943403;29;19919;-63
2023/02/13 20:37:39;;;;;;;;;;;;;;;5.56;68.52;100093.53;4930993;29;19975;-63
2023/02/13 20:40:04;;;;;;;;;;;;;;;5.16;70.02;100100.31;4934325;29;20298;-64
2023/02/13 20:42:31;;;;;;;;;;;;;;;4.91;72.41;100099.81;4935955;29;20001;-64
2023/02/13 20:44:56;;;;;;;;;;;;;;;4.77;72.66;100101.75;4934893;29;19969;-64
2023/02/13 20:47:21;;;;;;;;;;;;;;;4.65;73.84;100102.81;4933142;29;20136;-63
2023/02/13 20:49:46;;;;;;;;;;;;;;;4.57;74.54;100093.38;4936993;29;19919;-64
2023/02/13 20:52:12;;;;;;;;;;;;;;;4.51;74.42;100092.59;4916172;29;19926;-64
2023/02/13 20:54:38;;;;;;;;;;;;;;;4.63;77.41;100099.34;4921195;29;19919;-64
2023/02/13 20:57:03;;;;;;;;;;;;;;;4.91;80.24;100093.75;4931065;29;19919;-63
2023/02/13 20:59:28;;;;;;;;;;;;;;;5.15;78.45;100092.50;4939312;29;19918;-64
2023/02/13 21:01:53;;;;;;;;;;;;;;;5.35;77.65;100089.56;4935606;29;19918;-64
